createdAt,value
2023-05-17T00:01:46.043Z,101840.75
2023-05-17T00:04:13.479Z,101849.59
2023-05-17T00:06:41.461Z,101857.28
2023-05-17T00:09:08.838Z,101855.81
2023-05-17T00:11:35.620Z,101861.84
2023-05-17T00:14:02.558Z,101866.44
2023-05-17T00:16:29.916Z,101875.50
2023-05-17T00:18:56.733Z,101879.47
2023-05-17T00:21:23.865Z,101875.28
2023-05-17T00:23:50.620Z,101861.50
2023-05-17T00:26:17.368Z,101875.06
2023-05-17T00:28:44.077Z,101876.78
2023-05-17T00:31:10.823Z,101882.78
2023-05-17T00:33:37.622Z,101888.53
2023-05-17T00:36:04.750Z,101890.41
2023-05-17T00:38:31.559Z,101903.31
2023-05-17T00:40:58.280Z,101900.34
2023-05-17T00:43:26.183Z,101913.41
2023-05-17T00:45:53.050Z,101921.94
2023-05-17T00:48:25.555Z,101929.16
2023-05-17T00:50:53.790Z,101946.72
2023-05-17T00:53:20.745Z,101951.16
2023-05-17T00:55:48.561Z,101957.19
2023-05-17T00:58:16.553Z,101964.53
2023-05-17T01:00:43.931Z,101970.13
2023-05-17T01:03:10.799Z,101980.81
2023-05-17T01:05:37.583Z,101981.94
2023-05-17T01:08:04.628Z,101988.66
2023-05-17T01:10:42.328Z,101987.72
2023-05-17T01:13:10.446Z,101990.84
2023-05-17T01:15:46.408Z,101998.13
2023-05-17T01:18:20.900Z,102000.84
2023-05-17T01:20:49.120Z,102011.72
2023-05-17T01:23:31.153Z,102006.25
2023-05-17T01:26:07.882Z,102016.19
2023-05-17T01:28:38.487Z,102024.78
2023-05-17T01:31:07.472Z,102019.28
2023-05-17T01:33:34.733Z,102026.00
2023-05-17T01:36:01.743Z,102027.41
2023-05-17T01:38:28.500Z,102030.78
2023-05-17T01:41:13.881Z,102042.13
2023-05-17T01:43:58.988Z,102046.19
2023-05-17T01:46:39.178Z,102057.31
2023-05-17T01:49:08.692Z,102091.88
2023-05-17T01:51:45.461Z,102105.16
2023-05-17T01:54:14.026Z,102092.66
2023-05-17T01:56:52.186Z,102116.63
2023-05-17T01:59:25.414Z,102111.28
2023-05-17T02:02:00.804Z,102108.69
2023-05-17T02:04:27.530Z,102100.25
2023-05-17T02:06:54.305Z,102097.63
2023-05-17T02:09:21.102Z,102113.38
2023-05-17T02:11:47.874Z,102120.03
2023-05-17T02:14:14.623Z,102129.53
2023-05-17T02:16:41.542Z,102127.44
2023-05-17T02:19:09.234Z,102132.53
2023-05-17T02:21:36.179Z,102135.13
2023-05-17T02:24:02.892Z,102132.38
2023-05-17T02:26:29.824Z,102136.72
2023-05-17T02:28:56.512Z,102123.91
2023-05-17T02:31:24.983Z,102131.28
2023-05-17T02:33:51.749Z,102136.84
2023-05-17T02:36:18.561Z,102128.50
2023-05-17T02:38:45.419Z,102134.94
2023-05-17T02:41:12.173Z,102134.03
2023-05-17T02:43:40.421Z,102137.63
2023-05-17T02:46:07.188Z,102138.47
2023-05-17T02:48:34.482Z,102143.59
2023-05-17T02:51:02.191Z,102147.25
2023-05-17T02:53:28.925Z,102149.81
2023-05-17T02:55:58.193Z,102150.41
2023-05-17T02:58:27.859Z,102149.59
2023-05-17T03:00:54.606Z,102156.97
2023-05-17T03:03:21.751Z,102150.78
2023-05-17T03:05:48.616Z,102147.47
2023-05-17T03:08:15.524Z,102150.16
2023-05-17T03:10:44.917Z,102160.38
2023-05-17T03:13:11.720Z,102159.34
2023-05-17T03:15:41.371Z,102171.03
2023-05-17T03:18:08.161Z,102171.50
2023-05-17T03:20:35.092Z,102173.59
2023-05-17T03:23:01.788Z,102162.38
2023-05-17T03:25:28.818Z,102173.06
2023-05-17T03:27:55.823Z,102171.41
2023-05-17T03:30:22.482Z,102171.41
2023-05-17T03:32:49.445Z,102170.28
2023-05-17T03:35:16.365Z,102175.75
2023-05-17T03:37:45.109Z,102169.47
2023-05-17T03:40:13.133Z,102181.38
2023-05-17T03:42:39.914Z,102182.31
2023-05-17T03:45:07.362Z,102191.28
2023-05-17T03:47:34.200Z,102194.97
2023-05-17T03:50:00.940Z,102196.84
2023-05-17T03:52:27.722Z,102197.00
2023-05-17T03:54:57.253Z,102197.91
2023-05-17T03:57:24.050Z,102204.06
2023-05-17T03:59:50.849Z,102207.47
2023-05-17T04:02:17.787Z,102209.97
2023-05-17T04:04:54.628Z,102216.25
2023-05-17T04:07:21.440Z,102218.03
2023-05-17T04:09:48.421Z,102210.31
2023-05-17T04:12:15.202Z,102219.69
2023-05-17T04:14:42.013Z,102218.38
2023-05-17T04:17:08.737Z,102218.59
2023-05-17T04:19:35.958Z,102213.78
2023-05-17T04:22:02.738Z,102213.78
2023-05-17T04:24:29.526Z,102223.59
2023-05-17T04:27:01.329Z,102223.44
2023-05-17T04:29:29.800Z,102224.97
2023-05-17T04:31:56.635Z,102222.09
2023-05-17T04:34:24.976Z,102222.09
2023-05-17T04:36:51.835Z,102230.22
2023-05-17T04:39:18.761Z,102229.16
2023-05-17T04:41:45.604Z,102238.25
2023-05-17T04:44:12.406Z,102232.22
2023-05-17T04:46:39.087Z,102233.53
2023-05-17T04:49:06.045Z,102235.16
2023-05-17T04:51:33.063Z,102235.97
2023-05-17T04:54:03.279Z,102233.06
2023-05-17T04:56:30.138Z,102230.59
2023-05-17T04:58:56.841Z,102227.78
2023-05-17T05:01:23.556Z,102239.50
2023-05-17T05:03:50.620Z,102234.84
2023-05-17T05:06:17.491Z,102241.97
2023-05-17T05:08:44.404Z,102239.16
2023-05-17T05:11:12.550Z,102237.25
2023-05-17T05:13:39.361Z,102250.91
2023-05-17T05:16:06.628Z,102246.91
2023-05-17T05:18:33.675Z,102247.84
2023-05-17T05:21:00.981Z,102247.69
2023-05-17T05:23:27.714Z,102248.28
2023-05-17T05:25:54.505Z,102229.97
2023-05-17T05:28:21.462Z,102247.16
2023-05-17T05:30:48.203Z,102246.28
2023-05-17T05:33:15.039Z,102257.22
2023-05-17T05:35:41.887Z,102260.81
2023-05-17T05:38:08.814Z,102266.06
2023-05-17T05:40:35.658Z,102262.28
2023-05-17T05:43:02.353Z,102270.56
2023-05-17T05:45:29.178Z,102282.91
2023-05-17T05:47:55.929Z,102289.03
2023-05-17T05:50:22.677Z,102292.50
2023-05-17T05:52:49.427Z,102282.53
2023-05-17T05:55:16.352Z,102273.56
2023-05-17T05:57:43.031Z,102275.91
2023-05-17T06:00:12.047Z,102267.84
2023-05-17T06:02:38.870Z,102277.63
2023-05-17T06:05:06.013Z,102266.59
2023-05-17T06:07:32.700Z,102269.97
2023-05-17T06:09:59.399Z,102277.44
2023-05-17T06:12:26.152Z,102290.06
2023-05-17T06:14:52.917Z,102296.31
2023-05-17T06:17:21.465Z,102295.97
2023-05-17T06:19:49.351Z,102288.31
2023-05-17T06:22:16.355Z,102298.06
2023-05-17T06:24:43.086Z,102315.09
2023-05-17T06:27:09.882Z,102312.69
2023-05-17T06:29:36.597Z,102328.63
2023-05-17T06:32:03.612Z,102321.63
2023-05-17T06:34:30.377Z,102326.31
2023-05-17T06:36:57.090Z,102326.06
2023-05-17T06:39:23.848Z,102348.41
2023-05-17T06:41:50.610Z,102327.16
2023-05-17T06:44:17.438Z,102338.34
2023-05-17T06:46:44.144Z,102355.28
2023-05-17T06:49:11.211Z,102349.44
2023-05-17T06:51:38.040Z,102351.63
2023-05-17T06:54:04.829Z,102331.53
2023-05-17T06:56:31.849Z,102358.06
2023-05-17T06:58:58.554Z,102338.75
2023-05-17T07:01:25.849Z,102336.75
2023-05-17T07:03:52.751Z,102337.75
2023-05-17T07:06:19.767Z,102325.47
2023-05-17T07:08:46.688Z,102329.41
2023-05-17T07:11:13.533Z,102311.66
2023-05-17T07:13:40.265Z,102321.22
2023-05-17T07:16:08.548Z,102301.81
2023-05-17T07:18:35.411Z,102301.16
2023-05-17T07:21:02.258Z,102316.75
2023-05-17T07:23:28.968Z,102318.91
2023-05-17T07:25:55.746Z,102351.44
2023-05-17T07:28:22.525Z,102347.38
2023-05-17T07:30:52.120Z,102338.31
2023-05-17T07:33:18.933Z,102355.66
2023-05-17T07:35:45.693Z,102362.72
2023-05-17T07:38:12.460Z,102379.88
2023-05-17T07:40:39.151Z,102352.06
2023-05-17T07:43:05.881Z,102346.25
2023-05-17T07:45:32.692Z,102359.06
2023-05-17T07:47:59.509Z,102344.69
2023-05-17T07:50:26.429Z,102351.34
2023-05-17T07:52:53.300Z,102350.34
2023-05-17T07:55:21.408Z,102360.44
2023-05-17T07:57:48.288Z,102373.06
2023-05-17T08:00:15.708Z,102372.28
2023-05-17T08:02:43.323Z,102386.63
2023-05-17T08:05:10.723Z,102384.97
2023-05-17T08:07:37.742Z,102385.34
2023-05-17T08:10:04.843Z,102403.44
2023-05-17T08:12:31.609Z,102398.88
2023-05-17T08:14:58.371Z,102387.00
2023-05-17T08:17:25.198Z,102399.53
2023-05-17T08:19:52.115Z,102385.22
2023-05-17T08:22:19.406Z,102387.28
2023-05-17T08:24:46.660Z,102389.31
2023-05-17T08:27:13.377Z,102383.25
2023-05-17T08:29:42.600Z,102401.22
2023-05-17T08:32:09.675Z,102440.66
2023-05-17T08:34:36.773Z,102381.25
2023-05-17T08:37:03.684Z,102392.13
2023-05-17T08:39:31.553Z,102383.50
2023-05-17T08:41:59.684Z,102410.56
2023-05-17T08:44:28.449Z,102384.34
2023-05-17T08:46:56.743Z,102399.84
2023-05-17T08:49:25.941Z,102409.50
2023-05-17T08:51:54.665Z,102390.75
2023-05-17T08:54:22.819Z,102378.88
2023-05-17T08:56:54.029Z,102394.16
2023-05-17T08:59:24.204Z,102380.28
2023-05-17T09:01:54.754Z,102438.38
2023-05-17T09:04:22.323Z,102404.38
2023-05-17T09:06:50.674Z,102447.94
2023-05-17T09:09:18.809Z,102427.22
2023-05-17T09:11:45.483Z,102418.09
2023-05-17T09:14:12.220Z,102425.72
2023-05-17T09:16:39.102Z,102425.03
2023-05-17T09:19:09.731Z,102440.94
2023-05-17T09:21:36.893Z,102413.13
2023-05-17T09:24:07.765Z,102424.28
2023-05-17T09:26:46.214Z,102435.03
2023-05-17T09:29:16.051Z,102400.91
2023-05-17T09:31:43.895Z,102434.06
2023-05-17T09:34:11.652Z,102439.97
2023-05-17T09:36:46.267Z,102419.34
2023-05-17T09:39:15.217Z,102422.66
2023-05-17T09:41:51.082Z,102448.31
2023-05-17T09:44:17.796Z,102479.97
2023-05-17T09:46:47.475Z,102458.25
2023-05-17T09:49:15.519Z,102478.97
2023-05-17T09:51:45.601Z,102480.59
2023-05-17T09:54:12.506Z,102521.84
2023-05-17T09:56:39.816Z,102542.13
2023-05-17T09:59:14.822Z,102494.19
2023-05-17T10:01:43.328Z,102510.28
2023-05-17T10:04:11.470Z,102516.72
2023-05-17T10:09:14.367Z,102512.69
2023-05-17T10:11:45.738Z,102556.97
2023-05-17T10:14:15.615Z,102565.78
2023-05-17T10:16:43.256Z,102556.56
2023-05-17T10:19:11.614Z,102499.50
2023-05-17T10:21:39.416Z,102500.22
2023-05-17T10:24:07.841Z,102508.00
2023-05-17T10:26:35.966Z,102503.53
2023-05-17T10:29:04.743Z,102551.75
2023-05-17T10:31:34.106Z,102538.13
2023-05-17T10:34:02.108Z,102521.19
2023-05-17T10:36:29.769Z,102443.97
2023-05-17T10:38:59.304Z,102464.91
2023-05-17T10:41:34.260Z,102460.34
2023-05-17T10:44:08.156Z,102464.06
2023-05-17T10:46:36.983Z,102481.56
2023-05-17T10:49:04.181Z,102466.25
2023-05-17T10:51:33.816Z,102463.03
2023-05-17T10:54:11.079Z,102491.00
2023-05-17T10:56:47.389Z,102448.66
2023-05-17T10:59:15.854Z,102447.34
2023-05-17T11:01:58.050Z,102467.09
2023-05-17T11:04:27.329Z,102448.66
2023-05-17T11:07:25.064Z,102421.53
2023-05-17T11:09:51.892Z,102432.25
2023-05-17T11:12:31.312Z,102464.59
2023-05-17T11:14:59.829Z,102470.13
2023-05-17T11:17:33.999Z,102509.00
2023-05-17T11:20:13.577Z,102506.72
2023-05-17T11:22:58.960Z,102474.44
2023-05-17T11:25:31.414Z,102490.66
2023-05-17T11:27:59.048Z,102476.25
2023-05-17T11:30:29.088Z,102502.19
2023-05-17T11:33:01.751Z,102525.09
2023-05-17T11:35:39.491Z,102507.72
2023-05-17T11:38:24.137Z,102527.06
2023-05-17T11:40:56.344Z,102509.72
2023-05-17T11:43:25.363Z,102530.50
2023-05-17T11:46:04.173Z,102456.81
2023-05-17T11:48:31.571Z,102457.63
2023-05-17T11:51:00.034Z,102489.50
2023-05-17T11:53:31.011Z,102488.03
2023-05-17T11:56:02.263Z,102483.28
2023-05-17T11:58:29.705Z,102497.84
2023-05-17T12:01:01.511Z,102522.06
2023-05-17T12:03:29.420Z,102484.44
2023-05-17T12:06:15.533Z,102486.22
2023-05-17T12:08:47.122Z,102454.13
2023-05-17T12:11:18.690Z,102498.72
2023-05-17T12:13:48.900Z,102506.91
2023-05-17T12:16:18.427Z,102555.28
2023-05-17T12:18:49.680Z,102586.94
2023-05-17T12:21:18.305Z,102581.31
2023-05-17T12:23:49.582Z,102573.16
2023-05-17T12:26:20.808Z,102512.97
2023-05-17T12:29:02.428Z,102513.59
2023-05-17T12:31:41.757Z,102536.75
2023-05-17T12:34:09.877Z,102550.03
2023-05-17T12:36:40.513Z,102547.44
2023-05-17T12:39:09.405Z,102576.09
2023-05-17T12:41:37.170Z,102596.06
2023-05-17T12:44:14.382Z,102588.31
2023-05-17T12:46:42.870Z,102564.47
2023-05-17T12:49:11.947Z,102573.41
2023-05-17T12:51:46.341Z,102559.13
2023-05-17T12:54:25.095Z,102534.72
2023-05-17T12:56:51.959Z,102500.59
2023-05-17T12:59:21.156Z,102537.19
2023-05-17T13:01:50.649Z,102556.34
2023-05-17T13:04:20.982Z,102552.94
2023-05-17T13:06:49.347Z,102602.41
2023-05-17T13:09:21.914Z,102551.78
2023-05-17T13:11:53.271Z,102549.44
2023-05-17T13:14:48.443Z,102513.34
2023-05-17T13:17:16.905Z,102528.03
2023-05-17T13:19:43.772Z,102536.72
2023-05-17T13:22:10.849Z,102544.13
2023-05-17T13:24:38.807Z,102540.78
2023-05-17T13:27:06.705Z,102527.44
2023-05-17T13:29:40.150Z,102484.38
2023-05-17T13:32:09.383Z,102507.44
2023-05-17T13:34:36.859Z,102487.03
2023-05-17T13:37:04.968Z,102498.28
2023-05-17T13:39:31.830Z,102485.53
2023-05-17T13:41:59.160Z,102512.59
2023-05-17T13:44:26.376Z,102501.50
2023-05-17T13:46:53.211Z,102519.69
2023-05-17T13:49:20.092Z,102514.59
2023-05-17T13:51:46.854Z,102515.03
2023-05-17T13:54:13.506Z,102557.53
2023-05-17T13:56:40.583Z,102540.84
2023-05-17T13:59:07.543Z,102498.38
2023-05-17T14:01:34.446Z,102483.56
2023-05-17T14:04:01.379Z,102538.94
2023-05-17T14:06:28.653Z,102516.44
2023-05-17T14:08:59.710Z,102551.97
2023-05-17T14:11:26.604Z,102521.84
2023-05-17T14:13:53.413Z,102505.00
2023-05-17T14:16:20.226Z,102549.47
2023-05-17T14:18:47.279Z,102571.28
2023-05-17T14:21:14.121Z,102582.88
2023-05-17T14:23:40.964Z,102572.69
2023-05-17T14:26:07.818Z,102596.97
2023-05-17T14:28:38.049Z,102602.16
2023-05-17T14:31:09.563Z,102649.84
2023-05-17T14:33:38.765Z,102621.25
2023-05-17T14:36:05.775Z,102627.88
2023-05-17T14:38:32.677Z,102654.81
2023-05-17T14:41:05.247Z,102668.38
2023-05-17T14:43:32.633Z,102646.88
2023-05-17T14:45:59.349Z,102662.03
2023-05-17T14:48:26.418Z,102647.25
2023-05-17T14:50:53.418Z,102674.00
2023-05-17T14:53:20.251Z,102697.78
2023-05-17T14:55:47.678Z,102692.34
2023-05-17T14:58:14.432Z,102722.22
2023-05-17T15:00:44.808Z,102714.19
2023-05-17T15:03:11.770Z,102719.28
2023-05-17T15:05:38.874Z,102707.84
2023-05-17T15:08:05.847Z,102689.38
2023-05-17T15:10:32.560Z,102676.78
2023-05-17T15:12:59.366Z,102665.97
2023-05-17T15:15:26.068Z,102662.44
2023-05-17T15:17:53.029Z,102689.31
2023-05-17T15:20:20.402Z,102706.91
2023-05-17T15:22:48.277Z,102723.47
2023-05-17T15:25:15.535Z,102713.28
2023-05-17T15:27:42.262Z,102692.66
2023-05-17T15:30:11.838Z,102690.28
2023-05-17T15:32:40.030Z,102700.88
2023-05-17T15:35:07.795Z,102678.84
2023-05-17T15:37:37.872Z,102702.03
2023-05-17T15:40:09.789Z,102726.63
2023-05-17T15:42:37.047Z,102704.34
2023-05-17T15:45:07.258Z,102693.66
2023-05-17T15:50:03.969Z,102690.91
2023-05-17T15:52:30.869Z,102708.44
2023-05-17T15:54:57.641Z,102706.28
2023-05-17T15:57:24.349Z,102705.38
2023-05-17T15:59:51.438Z,102696.22
2023-05-17T16:02:21.171Z,102706.91
2023-05-17T16:04:47.850Z,102709.34
2023-05-17T16:07:14.529Z,102687.56
2023-05-17T16:09:41.224Z,102707.72
2023-05-17T16:12:08.233Z,102702.34
2023-05-17T16:14:35.839Z,102669.19
2023-05-17T16:17:05.797Z,102713.69
2023-05-17T16:19:34.244Z,102716.56
2023-05-17T16:22:01.388Z,102693.28
2023-05-17T16:24:28.286Z,102709.47
2023-05-17T16:26:55.011Z,102721.25
2023-05-17T16:29:21.678Z,102720.47
2023-05-17T16:31:48.766Z,102717.25
2023-05-17T16:34:15.551Z,102720.69
2023-05-17T16:36:42.464Z,102706.81
2023-05-17T16:39:09.149Z,102709.56
2023-05-17T16:41:35.968Z,102723.97
2023-05-17T16:44:02.719Z,102720.56
2023-05-17T16:46:29.584Z,102720.75
2023-05-17T16:48:57.827Z,102738.13
2023-05-17T16:51:24.583Z,102744.13
2023-05-17T16:53:53.790Z,102739.16
2023-05-17T16:56:22.220Z,102744.75
2023-05-17T16:58:49.027Z,102738.03
2023-05-17T17:01:19.247Z,102750.00
2023-05-17T17:03:46.145Z,102755.03
2023-05-17T17:06:12.969Z,102755.81
2023-05-17T17:08:39.724Z,102761.72
2023-05-17T17:11:06.466Z,102764.88
2023-05-17T17:13:33.187Z,102777.78
2023-05-17T17:16:00.020Z,102777.91
2023-05-17T17:18:26.882Z,102773.53
2023-05-17T17:20:54.077Z,102785.03
2023-05-17T17:23:20.790Z,102771.50
2023-05-17T17:25:47.512Z,102781.44
2023-05-17T17:28:14.225Z,102794.53
2023-05-17T17:30:41.007Z,102807.56
2023-05-17T17:33:07.759Z,102822.78
2023-05-17T17:35:34.553Z,102841.34
2023-05-17T17:38:03.121Z,102850.06
2023-05-17T17:40:30.128Z,102855.25
2023-05-17T17:42:57.248Z,102846.38
2023-05-17T17:45:24.085Z,102857.72
2023-05-17T17:47:51.094Z,102856.88
2023-05-17T17:50:17.881Z,102844.06
2023-05-17T17:52:44.776Z,102844.63
2023-05-17T17:55:13.019Z,102834.84
2023-05-17T17:57:39.721Z,102843.22
2023-05-17T18:00:07.963Z,102849.34
2023-05-17T18:02:35.427Z,102841.06
2023-05-17T18:05:02.430Z,102833.53
2023-05-17T18:07:29.217Z,102842.72
2023-05-17T18:09:57.001Z,102842.41
2023-05-17T18:12:27.099Z,102847.53
2023-05-17T18:14:54.162Z,102835.31
2023-05-17T18:17:21.065Z,102855.78
2023-05-17T18:19:48.754Z,102848.69
2023-05-17T18:22:17.003Z,102832.88
2023-05-17T18:24:43.847Z,102837.53
2023-05-17T18:27:14.312Z,102844.44
2023-05-17T18:29:41.371Z,102861.13
2023-05-17T18:32:09.481Z,102881.91
2023-05-17T18:34:36.624Z,102877.50
2023-05-17T18:37:03.505Z,102882.97
2023-05-17T18:39:30.509Z,102893.94
2023-05-17T18:41:57.372Z,102887.63
2023-05-17T18:44:26.551Z,102863.44
2023-05-17T18:46:54.079Z,102866.16
2023-05-17T18:49:21.447Z,102865.22
2023-05-17T18:51:48.329Z,102869.84
2023-05-17T18:54:15.013Z,102863.59
2023-05-17T18:56:41.791Z,102859.22
2023-05-17T18:59:08.524Z,102854.97
2023-05-17T19:01:37.874Z,102858.81
2023-05-17T19:04:04.679Z,102868.44
2023-05-17T19:06:31.997Z,102874.03
2023-05-17T19:08:58.913Z,102886.66
2023-05-17T19:11:26.740Z,102903.03
2023-05-17T19:13:53.410Z,102912.13
2023-05-17T19:16:20.551Z,102912.97
2023-05-17T19:18:47.338Z,102920.28
2023-05-17T19:21:14.059Z,102926.66
2023-05-17T19:23:40.945Z,102935.69
2023-05-17T19:26:07.688Z,102921.53
2023-05-17T19:28:35.849Z,102927.03
2023-05-17T19:31:03.667Z,102914.72
2023-05-17T19:33:32.048Z,102898.84
2023-05-17T19:35:58.753Z,102904.22
2023-05-17T19:38:25.573Z,102912.59
2023-05-17T19:40:52.534Z,102914.63
2023-05-17T19:43:19.257Z,102912.38
2023-05-17T19:45:46.196Z,102900.25
2023-05-17T19:48:13.290Z,102901.19
2023-05-17T19:50:40.147Z,102913.72
2023-05-17T19:53:06.858Z,102917.63
2023-05-17T19:55:35.431Z,102922.31
2023-05-17T19:58:03.249Z,102936.53
2023-05-17T20:00:31.839Z,102934.88
2023-05-17T20:02:59.023Z,102946.06
2023-05-17T20:05:27.250Z,102953.84
2023-05-17T20:07:54.243Z,102946.72
2023-05-17T20:10:21.142Z,102940.63
2023-05-17T20:12:49.105Z,102941.41
2023-05-17T20:15:15.790Z,102960.44
2023-05-17T20:17:42.587Z,102956.72
2023-05-17T20:20:09.688Z,102961.41
2023-05-17T20:22:38.255Z,102960.66
2023-05-17T20:25:05.258Z,102965.06
2023-05-17T20:27:31.941Z,102973.22
2023-05-17T20:29:58.604Z,102977.75
2023-05-17T20:32:27.828Z,102975.06
2023-05-17T20:34:54.551Z,102975.25
2023-05-17T20:37:21.318Z,102968.03
2023-05-17T20:39:48.146Z,102955.25
2023-05-17T20:42:18.575Z,102951.72
2023-05-17T20:44:45.889Z,102948.00
2023-05-17T20:47:13.382Z,102945.66
2023-05-17T20:49:40.087Z,102933.88
2023-05-17T20:52:07.017Z,102933.88
2023-05-17T20:54:33.835Z,102940.03
2023-05-17T20:57:00.705Z,102941.19
2023-05-17T20:59:27.505Z,102954.78
2023-05-17T21:01:54.256Z,102957.63
2023-05-17T21:04:21.195Z,102972.00
2023-05-17T21:06:47.916Z,102978.25
2023-05-17T21:09:14.975Z,102977.38
2023-05-17T21:11:41.745Z,102987.56
2023-05-17T21:14:08.749Z,102979.53
2023-05-17T21:16:35.638Z,102984.69
2023-05-17T21:19:02.977Z,102981.97
2023-05-17T21:21:29.732Z,102971.22
2023-05-17T21:23:56.443Z,102969.34
2023-05-17T21:26:23.240Z,102965.81
2023-05-17T21:28:50.026Z,102958.63
2023-05-17T21:31:18.991Z,102962.19
2023-05-17T21:33:45.864Z,102973.59
2023-05-17T21:36:12.581Z,102963.31
2023-05-17T21:38:39.378Z,102961.69
2023-05-17T21:41:06.275Z,102958.16
2023-05-17T21:43:33.155Z,102961.78
2023-05-17T21:45:59.922Z,102958.34
2023-05-17T21:48:26.757Z,102960.28
2023-05-17T21:50:53.501Z,102958.63
2023-05-17T21:53:20.375Z,102959.75
2023-05-17T21:58:20.530Z,102958.34
2023-05-17T22:00:47.423Z,102966.56
2023-05-17T22:03:14.282Z,102973.16
2023-05-17T22:05:41.473Z,102973.50
2023-05-17T22:08:08.196Z,102972.94
2023-05-17T22:10:34.896Z,102966.03
2023-05-17T22:13:02.273Z,102976.28
2023-05-17T22:15:29.159Z,102976.63
2023-05-17T22:17:55.953Z,102984.19
2023-05-17T22:20:27.407Z,102983.22
2023-05-17T22:22:54.171Z,102986.25
2023-05-17T22:25:21.158Z,102985.56
2023-05-17T22:27:47.912Z,102980.25
2023-05-17T22:30:14.711Z,102988.50
2023-05-17T22:32:41.433Z,102983.25
2023-05-17T22:35:11.992Z,102976.84
2023-05-17T22:37:43.756Z,102984.25
2023-05-17T22:40:10.861Z,102977.81
2023-05-17T22:42:37.693Z,102985.16
2023-05-17T22:45:04.812Z,102987.97
2023-05-17T22:47:34.268Z,102985.31
2023-05-17T22:50:03.266Z,102989.13
2023-05-17T22:52:30.000Z,102992.72
2023-05-17T22:54:56.880Z,102992.78
2023-05-17T22:57:23.663Z,102999.31
2023-05-17T22:59:50.556Z,102999.63
2023-05-17T23:02:17.321Z,103002.19
2023-05-17T23:04:46.009Z,103003.03
2023-05-17T23:07:12.903Z,102999.91
2023-05-17T23:09:40.587Z,102996.22
2023-05-17T23:12:08.904Z,102998.25
2023-05-17T23:14:36.736Z,102991.25
2023-05-17T23:17:04.614Z,102996.78
2023-05-17T23:19:33.351Z,103000.66
2023-05-17T23:22:03.207Z,103006.97
2023-05-17T23:24:30.222Z,103014.19
2023-05-17T23:26:57.709Z,103011.75
2023-05-17T23:29:25.942Z,103003.81
2023-05-17T23:31:53.513Z,103008.34
2023-05-17T23:34:23.811Z,103014.66
2023-05-17T23:36:50.823Z,103022.69
2023-05-17T23:39:18.024Z,103023.66
2023-05-17T23:41:45.041Z,103018.63
2023-05-17T23:44:14.802Z,103021.56
2023-05-17T23:46:44.576Z,103015.38
2023-05-17T23:49:11.431Z,103021.72
2023-05-17T23:51:38.197Z,103034.22
2023-05-17T23:54:05.128Z,103036.09
2023-05-17T23:56:31.890Z,103032.50
2023-05-17T23:58:58.629Z,103032.81
